Time;durP1;ratioP1;P1;durP2;ratioP2;P2;SDS_P1;SDS_P2;PMS_P1;PMS_P2;Temp;Humidity;BMP_temperature;BMP_pressure;BME280_temperature;BME280_humidity;BME280_pressure;Samples;Min_cycle;Max_cycle;Signal;HPM_P1;HPM_P2
2021/12/06 00:02:03;;;;;;;10.68;8.95;;;;;;;5.81;72.08;99777.44;5072110;28;20048;-70
2021/12/06 00:04:33;;;;;;;9.13;8.23;;;;;;;5.81;72.48;99786.56;5060918;28;20060;-70
2021/12/06 00:07:05;;;;;;;10.30;8.93;;;;;;;5.69;73.06;99787.03;5052357;28;20052;-70
2021/12/06 00:09:36;;;;;;;11.02;8.82;;;;;;;5.73;73.08;99789.16;5059753;28;20052;-70
2021/12/06 00:12:04;;;;;;;10.45;8.98;;;;;;;5.65;72.76;99788.75;5054894;28;20068;-70
2021/12/06 00:14:34;;;;;;;11.35;9.52;;;;;;;5.66;72.44;99790.38;5067285;28;20059;-70
2021/12/06 00:17:06;;;;;;;9.43;8.10;;;;;;;5.66;72.36;99786.78;5064515;28;20056;-70
2021/12/06 00:19:37;;;;;;;9.63;8.35;;;;;;;5.57;72.16;99792.16;5065453;28;20056;-70
2021/12/06 00:22:10;;;;;;;9.52;8.52;;;;;;;5.50;72.12;99791.69;5070093;28;20048;-70
2021/12/06 00:24:37;;;;;;;10.15;8.93;;;;;;;5.43;72.67;99788.50;5057757;28;20060;-70
2021/12/06 00:27:05;;;;;;;14.65;10.30;;;;;;;5.42;72.31;99792.38;5052179;28;20056;-70
2021/12/06 00:29:33;;;;;;;10.48;9.32;;;;;;;5.35;72.67;99791.91;5059638;28;20059;-70
2021/12/06 00:32:01;;;;;;;9.45;8.45;;;;;;;5.23;72.11;99793.19;5071848;28;20056;-70
2021/12/06 00:34:33;;;;;;;9.63;8.55;;;;;;;5.08;72.56;99788.66;5054164;28;20057;-70
2021/12/06 00:37:16;;;;;;;11.00;8.80;;;;;;;4.96;72.71;99804.81;5051834;28;20053;-70
2021/12/06 00:39:45;;;;;;;9.80;8.70;;;;;;;4.85;72.36;99806.03;5068740;28;20060;-69
2021/12/06 00:42:12;;;;;;;9.40;7.88;;;;;;;4.69;72.03;99808.16;5062324;28;20429;-69
2021/12/06 00:44:40;;;;;;;8.55;7.70;;;;;;;4.48;72.86;99807.53;5051922;28;20060;-69
2021/12/06 00:47:09;;;;;;;8.10;7.30;;;;;;;4.37;72.49;99806.81;5057967;28;20417;-69
2021/12/06 00:49:37;;;;;;;10.63;8.00;;;;;;;4.19;73.50;99805.56;5067283;28;20045;-69
2021/12/06 00:52:06;;;;;;;10.18;6.85;;;;;;;4.02;73.44;99808.72;5054823;28;20510;-69
2021/12/06 00:54:35;;;;;;;8.18;7.22;;;;;;;3.92;73.75;99813.50;5064345;28;20061;-69
2021/12/06 00:57:05;;;;;;;7.63;6.80;;;;;;;3.82;73.89;99817.97;5063092;28;20469;-69
2021/12/06 00:59:33;;;;;;;11.02;8.88;;;;;;;3.72;73.84;99817.22;5073414;28;20461;-69
2021/12/06 01:02:00;;;;;;;8.75;7.85;;;;;;;3.65;74.15;99823.03;5067715;28;20045;-69
2021/12/06 01:04:31;;;;;;;8.43;7.50;;;;;;;3.59;73.52;99824.16;5064993;28;20048;-69
2021/12/06 01:07:00;;;;;;;16.27;10.90;;;;;;;3.53;73.87;99819.78;5068364;28;20041;-69
2021/12/06 01:09:28;;;;;;;10.60;9.50;;;;;;;3.46;74.07;99828.34;5070974;28;20523;-69
2021/12/06 01:11:55;;;;;;;10.80;9.70;;;;;;;3.39;74.05;99836.94;5062168;28;20052;-69
2021/12/06 01:14:23;;;;;;;9.63;8.45;;;;;;;3.34;74.16;99844.38;5058248;28;20052;-69
2021/12/06 01:16:50;;;;;;;11.60;9.85;;;;;;;3.23;73.96;99844.44;5059355;28;20406;-69
2021/12/06 01:19:18;;;;;;;11.90;10.68;;;;;;;3.18;73.91;99851.88;5069793;28;20045;-68
2021/12/06 01:21:47;;;;;;;12.32;9.93;;;;;;;3.13;73.88;99860.13;5058784;28;20060;-69
2021/12/06 01:24:17;;;;;;;11.97;10.63;;;;;;;3.08;74.13;99866.50;5069782;28;20071;-69
2021/12/06 01:27:06;;;;;;;12.77;10.95;;;;;;;3.03;74.50;99869.28;5059627;28;20485;-69
2021/12/06 01:32:37;;;;;;;11.60;9.27;;;;;;;2.91;74.95;99880.56;5046156;28;20057;-69
2021/12/06 01:40:36;;;;;;;13.50;11.43;;;;;;;2.78;74.88;99884.72;5062236;28;20060;-69
2021/12/06 01:43:05;;;;;;;12.07;9.63;;;;;;;2.74;74.92;99891.06;5055365;28;20053;-68
2021/12/06 01:45:32;;;;;;;11.63;9.65;;;;;;;2.70;75.20;99899.03;5059851;28;20049;-69
2021/12/06 01:47:59;;;;;;;17.90;13.02;;;;;;;2.48;76.03;99904.81;5057879;28;20494;-69
2021/12/06 01:50:29;;;;;;;12.07;10.35;;;;;;;2.51;75.54;99908.94;5056851;28;20052;-69
2021/12/06 01:52:58;;;;;;;12.48;9.68;;;;;;;2.49;75.46;99905.63;5054102;28;20505;-68
2021/12/06 01:55:28;;;;;;;12.82;10.05;;;;;;;2.44;75.29;99910.03;5057577;28;20063;-68
2021/12/06 01:58:00;;;;;;;;;;;;;;;2.33;75.16;99907.53;5057216;28;20053;-68
2021/12/06 02:00:32;;;;;;;10.85;8.65;;;;;;;2.30;75.41;99913.59;5052696;28;20015;-68
2021/12/06 02:03:00;;;;;;;11.30;9.93;;;;;;;2.23;75.68;99911.13;5053866;28;20071;-68
2021/12/06 02:05:27;;;;;;;13.70;10.45;;;;;;;2.26;75.70;99920.72;5055625;28;20413;-68
2021/12/06 02:07:55;;;;;;;11.88;9.98;;;;;;;2.21;75.71;99929.78;5054033;28;20124;-68
2021/12/06 02:10:23;;;;;;;11.63;9.45;;;;;;;2.19;75.41;99929.25;5058343;28;20061;-68
2021/12/06 02:12:53;;;;;;;13.05;10.65;;;;;;;2.17;75.65;99925.94;5057297;28;20414;-68
2021/12/06 02:15:35;;;;;;;11.32;10.02;;;;;;;2.15;75.16;99922.63;5062428;28;20049;-68
2021/12/06 02:18:07;;;;;;;12.55;10.57;;;;;;;2.13;74.62;99924.84;5065544;28;20059;-68
2021/12/06 02:20:43;;;;;;;10.77;9.35;;;;;;;2.09;75.12;99931.97;5071050;28;20437;-68
2021/12/06 02:23:11;;;;;;;10.55;8.90;;;;;;;2.04;75.31;99930.03;5054683;28;20051;-68
2021/12/06 02:25:39;;;;;;;10.43;8.65;;;;;;;2.02;75.11;99924.81;5054652;28;20060;-68
2021/12/06 02:28:06;;;;;;;10.55;9.45;;;;;;;1.99;74.90;99930.00;5057369;28;20049;-68
2021/12/06 02:30:34;;;;;;;11.77;9.50;;;;;;;1.95;75.43;99940.72;5056729;28;20456;-68
2021/12/06 02:33:02;;;;;;;11.63;10.23;;;;;;;1.95;75.75;99946.22;5061548;28;20055;-68
2021/12/06 02:35:29;;;;;;;13.25;9.90;;;;;;;2.01;75.45;99953.34;5065010;28;20044;-68
2021/12/06 02:37:57;;;;;;;13.30;10.95;;;;;;;2.08;76.55;99947.63;5063471;28;20045;-69
2021/12/06 02:40:30;;;;;;;13.43;11.35;;;;;;;2.11;76.49;99944.34;5070367;28;20382;-68
2021/12/06 02:42:59;;;;;;;14.30;11.15;;;;;;;2.19;76.90;99948.47;5061414;28;20057;-68
2021/12/06 02:45:28;;;;;;;15.93;10.88;;;;;;;2.20;75.89;99952.88;5063374;28;20053;-68
2021/12/06 02:47:58;;;;;;;10.75;9.18;;;;;;;2.25;75.82;99955.63;5052373;28;20053;-68
2021/12/06 02:50:29;;;;;;;105.15;17.13;;;;;;;2.30;76.35;99958.38;5056676;28;20498;-68
2021/12/06 02:52:57;;;;;;;23.45;12.23;;;;;;;2.35;76.92;99954.81;5052304;28;20135;-68
2021/12/06 02:55:32;;;;;;;48.30;13.75;;;;;;;2.39;76.82;99954.00;5070547;28;20052;-68
2021/12/06 02:58:12;;;;;;;58.10;13.98;;;;;;;2.42;76.65;99950.72;5060258;28;20052;-69
2021/12/06 03:00:40;;;;;;;76.13;14.30;;;;;;;2.46;77.01;99950.16;5059972;28;20052;-69
2021/12/06 03:03:08;;;;;;;43.42;12.18;;;;;;;2.48;76.80;99948.78;5070515;28;20060;-69
2021/12/06 03:05:35;;;;;;;28.27;11.70;;;;;;;2.51;77.11;99939.16;5052899;28;20052;-68
2021/12/06 03:08:04;;;;;;;16.00;10.93;;;;;;;2.56;76.95;99944.66;5052933;28;20056;-68
2021/12/06 03:10:33;;;;;;;30.90;11.32;;;;;;;2.60;76.20;99951.25;5053079;28;20060;-68
2021/12/06 03:13:01;;;;;;;23.70;12.45;;;;;;;2.65;76.24;99943.03;5052663;28;20049;-69
2021/12/06 03:15:32;;;;;;;116.25;16.75;;;;;;;2.73;76.64;99958.13;5072692;28;20060;-69
2021/12/06 03:17:59;;;;;;;107.13;18.50;;;;;;;2.74;77.21;99957.88;5071992;28;20064;-69
2021/12/06 03:20:27;;;;;;;103.65;17.85;;;;;;;2.85;77.96;99955.94;5051971;28;20049;-69
2021/12/06 03:22:54;;;;;;;135.05;19.50;;;;;;;2.94;78.22;99958.94;5052342;28;20044;-69
2021/12/06 03:25:22;;;;;;;101.18;17.15;;;;;;;3.03;78.62;99965.56;5072096;28;20052;-68
2021/12/06 03:27:50;;;;;;;106.70;19.08;;;;;;;3.07;79.05;99966.66;5068237;28;20048;-68
2021/12/06 03:30:18;;;;;;;123.93;21.83;;;;;;;3.13;79.23;99973.81;5052603;28;20416;-69
2021/12/06 03:32:45;;;;;;;171.23;25.98;;;;;;;3.13;78.49;99979.31;5052220;28;20429;-68
2021/12/06 03:35:14;;;;;;;214.82;24.17;;;;;;;3.14;78.91;99982.88;5052656;28;20053;-68
2021/12/06 03:37:41;;;;;;;89.40;17.67;;;;;;;3.10;78.51;99982.59;5052260;28;20049;-68
2021/12/06 03:40:10;;;;;;;115.93;21.52;;;;;;;3.16;79.05;99987.00;5053081;28;20060;-68
2021/12/06 03:42:37;;;;;;;87.20;17.20;;;;;;;3.19;78.91;99989.22;5066441;28;20485;-68
2021/12/06 03:45:09;;;;;;;71.03;17.27;;;;;;;3.21;79.29;99989.75;5057638;28;20609;-68
2021/12/06 03:47:37;;;;;;;82.65;16.17;;;;;;;3.25;79.38;100001.88;5052166;28;20049;-68
2021/12/06 03:50:06;;;;;;;74.80;16.33;;;;;;;3.22;79.22;99996.91;5052407;28;20056;-68
2021/12/06 03:52:34;;;;;;;74.60;17.67;;;;;;;3.17;78.97;100001.56;5052581;28;20052;-68
2021/12/06 03:55:02;;;;;;;96.65;18.30;;;;;;;3.07;79.26;99996.94;5051856;28;20493;-68
2021/12/06 03:57:29;;;;;;;83.05;16.92;;;;;;;3.00;78.97;100010.13;5057079;28;20048;-68
2021/12/06 03:59:57;;;;;;;91.75;16.75;;;;;;;2.97;79.04;100017.00;5052368;28;20056;-69
2021/12/06 04:02:29;;;;;;;117.50;19.25;;;;;;;2.94;79.12;100009.31;5054050;28;20064;-69
2021/12/06 04:04:56;;;;;;;141.25;18.65;;;;;;;2.90;78.79;100008.22;5053098;28;20053;-69
2021/12/06 04:07:24;;;;;;;111.90;17.60;;;;;;;2.83;78.85;100013.13;5059192;28;20524;-69
2021/12/06 04:09:52;;;;;;;64.95;14.02;;;;;;;2.68;78.00;100008.47;5051743;28;20048;-69
2021/12/06 04:12:19;;;;;;;59.92;14.68;;;;;;;2.54;77.86;100007.34;5053493;28;20052;-69
2021/12/06 04:14:47;;;;;;;92.63;19.00;;;;;;;2.50;77.96;100006.22;5052095;28;20057;-69
2021/12/06 04:17:15;;;;;;;50.28;15.27;;;;;;;2.48;78.36;100016.66;5058117;28;20048;-69
2021/12/06 04:19:44;;;;;;;64.25;14.50;;;;;;;2.55;78.93;100009.00;5071647;28;20056;-69
2021/12/06 04:22:13;;;;;;;62.08;13.73;;;;;;;2.55;78.52;100009.00;5061718;28;20067;-69
2021/12/06 04:24:40;;;;;;;48.28;11.70;;;;;;;2.58;78.77;100013.94;5066484;28;20145;-69
2021/12/06 04:27:13;;;;;;;56.33;14.57;;;;;;;2.60;79.13;100018.09;5054916;28;20059;-69
2021/12/06 04:29:44;;;;;;;51.38;13.90;;;;;;;2.72;78.70;100031.56;5065353;28;20049;-69
2021/12/06 04:32:12;;;;;;;29.00;12.07;;;;;;;2.75;78.55;100031.03;5068653;28;20048;-69
2021/12/06 04:34:40;;;;;;;55.10;15.48;;;;;;;2.69;78.07;100034.03;5054541;28;20053;-69
2021/12/06 04:37:10;;;;;;;26.83;11.50;;;;;;;2.66;76.85;100032.66;5054782;28;20049;-69
2021/12/06 04:39:39;;;;;;;19.60;11.10;;;;;;;2.57;76.58;100034.31;5058144;28;20060;-69
2021/12/06 04:42:07;;;;;;;18.00;10.90;;;;;;;2.54;76.55;100040.31;5068899;28;20049;-69
2021/12/06 04:44:35;;;;;;;22.88;12.15;;;;;;;2.58;76.73;100036.78;5062872;28;20055;-69
2021/12/06 04:47:05;;;;;;;14.00;11.68;;;;;;;2.56;76.62;100038.97;5063106;28;20052;-69
2021/12/06 04:49:32;;;;;;;13.77;10.80;;;;;;;2.61;77.07;100038.16;5060840;28;20044;-69
2021/12/06 04:52:05;;;;;;;13.65;11.70;;;;;;;2.62;75.71;100045.28;5065170;28;20052;-69
2021/12/06 04:54:40;;;;;;;11.77;10.55;;;;;;;2.64;76.57;100051.34;5062995;28;20049;-69
2021/12/06 04:57:13;;;;;;;12.30;10.88;;;;;;;2.64;75.73;100054.09;5069363;28;20044;-69
2021/12/06 04:59:43;;;;;;;13.27;11.18;;;;;;;2.62;75.74;100067.28;5070637;28;20059;-69
2021/12/06 05:02:12;;;;;;;11.50;10.35;;;;;;;2.59;75.25;100065.91;5061547;28;20056;-69
2021/12/06 05:04:43;;;;;;;12.07;10.77;;;;;;;2.53;75.13;100064.25;5057038;28;20732;-69
2021/12/06 05:07:15;;;;;;;29.92;12.10;;;;;;;2.55;75.88;100074.97;5059972;28;20063;-69
2021/12/06 05:09:47;;;;;;;29.15;13.02;;;;;;;2.50;75.63;100072.19;5066082;28;20053;-69
2021/12/06 05:12:17;;;;;;;16.92;12.05;;;;;;;2.48;75.49;100079.91;5061466;28;20067;-69
2021/12/06 05:14:44;;;;;;;26.30;12.65;;;;;;;2.49;75.21;100082.38;5074898;28;20409;-69
2021/12/06 05:17:12;;;;;;;15.57;11.70;;;;;;;2.50;75.38;100086.78;5072260;28;20507;-69
2021/12/06 05:19:39;;;;;;;38.67;12.15;;;;;;;2.57;75.85;100089.28;5058779;28;20049;-69
2021/12/06 05:22:12;;;;;;;31.42;11.82;;;;;;;2.59;75.57;100090.66;5057942;28;20064;-69
2021/12/06 05:24:40;;;;;;;78.10;14.77;;;;;;;2.57;77.15;100100.28;5057299;28;20053;-69
2021/12/06 05:27:09;;;;;;;43.50;13.75;;;;;;;2.59;77.53;100100.84;5064465;28;20052;-69
2021/12/06 05:29:37;;;;;;;68.00;14.30;;;;;;;2.64;76.85;100104.41;5066422;28;20048;-69
2021/12/06 05:32:05;;;;;;;54.55;13.75;;;;;;;2.65;77.24;100102.50;5064638;28;20471;-69
2021/12/06 05:34:38;;;;;;;27.92;12.60;;;;;;;2.62;77.51;100103.88;5061805;28;20079;-69
2021/12/06 05:37:06;;;;;;;33.13;11.43;;;;;;;2.67;77.19;100100.31;5065981;28;20051;-69
2021/12/06 05:39:34;;;;;;;45.28;10.82;;;;;;;2.64;76.83;100115.41;5060678;28;20052;-69
2021/12/06 05:42:05;;;;;;;89.47;15.57;;;;;;;2.57;76.13;100105.78;5064504;28;20497;-69
2021/12/06 05:44:35;;;;;;;104.03;20.10;;;;;;;2.47;76.40;100112.06;5057967;28;20052;-68
2021/12/06 05:47:03;;;;;;;57.53;11.82;;;;;;;2.51;76.41;100109.59;5069745;28;20053;-68
2021/12/06 05:49:30;;;;;;;95.18;13.32;;;;;;;2.51;76.67;100120.59;5067331;28;20520;-68
2021/12/06 05:51:58;;;;;;;60.78;13.73;;;;;;;2.38;77.33;100120.00;5063597;28;20051;-68
2021/12/06 05:54:29;;;;;;;48.63;13.55;;;;;;;2.41;77.29;100116.69;5058952;28;20064;-68
2021/12/06 05:56:57;;;;;;;200.68;32.58;;;;;;;2.39;77.06;100127.16;5064714;28;20057;-68
2021/12/06 05:59:25;;;;;;;67.88;16.65;;;;;;;2.38;77.92;100128.25;5054094;28;20049;-68
2021/12/06 06:01:54;;;;;;;92.07;21.13;;;;;;;2.50;77.69;100132.69;5066642;28;20427;-68
2021/12/06 06:04:22;;;;;;;62.55;12.73;;;;;;;2.44;77.20;100127.19;5061342;28;20045;-68
2021/12/06 06:06:50;;;;;;;41.85;10.35;;;;;;;2.35;76.91;100128.81;5056064;28;20057;-68
2021/12/06 06:09:20;;;;;;;179.20;19.60;;;;;;;2.28;76.58;100119.13;5071685;28;20044;-68
2021/12/06 06:11:47;;;;;;;71.50;12.23;;;;;;;2.21;77.62;100124.88;5067727;28;20048;-68
2021/12/06 06:14:16;;;;;;;74.25;11.38;;;;;;;2.20;77.95;100137.78;5057086;28;20060;-68
2021/12/06 06:16:50;;;;;;;72.60;12.75;;;;;;;2.20;77.60;100136.94;5065270;28;20048;-68
2021/12/06 06:19:21;;;;;;;77.75;12.70;;;;;;;2.14;77.72;100133.38;5073046;28;20052;-68
2021/12/06 06:21:49;;;;;;;61.88;12.10;;;;;;;2.15;78.15;100137.75;5062047;28;20053;-69
2021/12/06 06:24:17;;;;;;;37.67;11.25;;;;;;;2.14;77.73;100143.50;5055238;28;20057;-68
2021/12/06 06:26:45;;;;;;;58.85;12.02;;;;;;;2.13;77.65;100137.19;5065310;28;20161;-68
2021/12/06 06:29:13;;;;;;;48.75;10.30;;;;;;;2.06;78.11;100136.63;5073237;28;20053;-68
2021/12/06 06:31:40;;;;;;;25.77;9.32;;;;;;;2.06;77.55;100139.38;5059119;28;20056;-68
2021/12/06 06:34:08;;;;;;;34.22;9.32;;;;;;;2.01;77.78;100142.06;5053556;28;20068;-68
2021/12/06 06:36:40;;;;;;;49.88;10.13;;;;;;;1.99;78.07;100144.25;5053301;28;20490;-68
2021/12/06 06:39:09;;;;;;;35.03;11.10;;;;;;;2.00;78.42;100140.44;5052983;28;20056;-68
2021/12/06 06:41:36;;;;;;;39.67;11.00;;;;;;;1.99;78.07;100139.56;5053721;28;20060;-68
2021/12/06 06:44:07;;;;;;;39.67;12.75;;;;;;;2.02;78.80;100144.56;5053141;28;20045;-67
2021/12/06 06:46:35;;;;;;;74.32;30.45;;;;;;;2.09;78.86;100144.31;5062203;28;20056;-68
2021/12/06 06:49:03;;;;;;;43.47;13.45;;;;;;;2.13;78.53;100148.19;5055665;28;20102;-68
2021/12/06 06:51:31;;;;;;;67.10;13.13;;;;;;;2.18;78.47;100152.88;5052641;28;20060;-68
2021/12/06 06:54:00;;;;;;;117.15;21.23;;;;;;;2.23;78.11;100152.91;5050333;28;20053;-68
2021/12/06 06:56:28;;;;;;;34.10;10.95;;;;;;;2.17;78.06;100151.25;5050771;28;20049;-69
2021/12/06 06:58:55;;;;;;;73.85;12.40;;;;;;;2.15;77.84;100156.16;5052261;28;20053;-69
2021/12/06 07:01:22;;;;;;;27.25;11.55;;;;;;;2.15;77.19;100158.91;5051923;28;20049;-69
2021/12/06 07:03:53;;;;;;;44.53;11.20;;;;;;;2.19;77.21;100169.09;5055064;28;20052;-44
2021/12/06 07:06:21;;;;;;;17.52;9.75;;;;;;;1.78;79.28;100170.75;5066268;28;20061;-66
2021/12/06 07:08:49;;;;;;;34.00;10.45;;;;;;;2.14;78.46;100162.75;5068979;28;20052;-65
2021/12/06 07:11:17;;;;;;;29.23;9.43;;;;;;;2.38;77.09;100168.66;5068884;28;20064;-65
2021/12/06 07:13:47;;;;;;;10.73;7.85;;;;;;;2.45;75.96;100166.47;5069603;28;20060;-67
2021/12/06 07:16:15;;;;;;;;;;;;;;;2.49;75.05;100162.09;5055352;28;20059;-65
2021/12/06 07:18:43;;;;;;;13.75;7.47;;;;;;;2.44;75.22;100168.41;5054758;28;19927;-65
2021/12/06 07:21:11;;;;;;;23.05;8.85;;;;;;;2.45;75.77;100163.72;5065954;28;20049;-65
2021/12/06 07:23:39;;;;;;;18.88;8.30;;;;;;;2.50;75.62;100172.03;5059039;28;20048;-65
2021/12/06 07:26:08;;;;;;;15.02;7.32;;;;;;;2.52;74.52;100169.81;5054774;28;20048;-65
2021/12/06 07:28:38;;;;;;;49.00;9.93;;;;;;;2.48;74.75;100173.34;5068441;28;20051;-65
2021/12/06 07:31:06;;;;;;;;;;;;;;;2.41;75.11;100168.09;5066602;28;20059;-65
2021/12/06 07:33:33;;;;;;;29.67;9.30;;;;;;;2.37;75.41;100165.09;5057318;28;19921;-65
2021/12/06 07:36:02;;;;;;;32.70;10.38;;;;;;;2.36;74.67;100171.66;5054747;28;20615;-65
2021/12/06 07:38:29;;;;;;;12.57;7.10;;;;;;;2.41;73.34;100152.44;5059113;28;20498;-65
2021/12/06 07:40:58;;;;;;;11.95;7.93;;;;;;;2.34;73.58;100157.38;5065159;28;20052;-65
2021/12/06 07:43:25;;;;;;;15.88;8.20;;;;;;;2.35;72.78;100147.19;5053943;28;20394;-66
2021/12/06 07:45:54;;;;;;;33.17;11.30;;;;;;;2.37;72.55;100154.09;5057499;28;20049;-65
2021/12/06 07:48:22;;;;;;;41.47;10.65;;;;;;;2.34;72.89;100157.38;5062384;28;20076;-66
2021/12/06 07:50:49;;;;;;;21.40;9.10;;;;;;;2.34;72.69;100151.88;5056425;28;20391;-66
2021/12/06 07:53:17;;;;;;;21.63;8.73;;;;;;;2.34;72.70;100153.78;5060030;28;20068;-66
2021/12/06 07:55:44;;;;;;;36.97;10.75;;;;;;;2.38;72.50;100161.22;5062484;28;20056;-66
2021/12/06 07:58:12;;;;;;;68.07;10.75;;;;;;;2.48;72.61;100167.84;5070120;28;20068;-66
2021/12/06 08:00:43;;;;;;;41.65;10.80;;;;;;;2.46;72.32;100167.28;5052065;28;20053;-66
2021/12/06 08:03:12;;;;;;;35.08;10.55;;;;;;;2.50;72.33;100166.53;5055929;28;20052;-66
2021/12/06 08:05:42;;;;;;;30.77;10.53;;;;;;;2.42;72.13;100165.09;5060294;28;20425;-66
2021/12/06 08:08:11;;;;;;;;;;;;;;;2.44;71.88;100160.16;5054938;28;20053;-66
2021/12/06 08:10:43;;;;;;;16.75;10.48;;;;;;;2.57;71.57;100158.84;5056365;28;19921;-66
2021/12/06 08:13:12;;;;;;;16.05;9.07;;;;;;;2.65;70.86;100165.75;5064638;28;20045;-66
2021/12/06 08:15:40;;;;;;;94.47;14.37;;;;;;;2.70;70.88;100170.44;5062311;28;20409;-66
2021/12/06 08:18:08;;;;;;;64.85;12.65;;;;;;;2.74;71.11;100163.31;5057993;28;20475;-66
2021/12/06 08:20:38;;;;;;;48.92;12.15;;;;;;;2.80;71.78;100159.47;5057337;28;20064;-66
2021/12/06 08:23:06;;;;;;;;;;;;;;;2.78;71.25;100169.91;5054160;28;20056;-66
2021/12/06 08:25:34;;;;;;;23.63;10.90;;;;;;;2.91;71.02;100171.31;5054221;28;19951;-66
2021/12/06 08:28:01;;;;;;;16.02;9.38;;;;;;;3.03;70.87;100163.66;5053555;28;20060;-66
2021/12/06 08:30:32;;;;;;;33.85;10.00;;;;;;;2.96;69.92;100158.41;5054951;28;20048;-66
2021/12/06 08:33:01;;;;;;;38.45;11.00;;;;;;;2.70;70.89;100164.94;5054936;28;20045;-66
2021/12/06 08:35:33;;;;;;;29.88;8.82;;;;;;;2.99;69.04;100162.53;5061144;28;20072;-66
2021/12/06 08:38:02;;;;;;;27.65;10.18;;;;;;;3.02;69.49;100162.00;5054003;28;20056;-65
2021/12/06 08:40:30;;;;;;;28.25;9.52;;;;;;;2.94;69.79;100165.28;5056407;28;20048;-65
2021/12/06 08:42:58;;;;;;;28.85;8.73;;;;;;;3.11;68.87;100160.38;5055853;28;20040;-65
2021/12/06 08:45:27;;;;;;;63.28;11.27;;;;;;;3.16;67.71;100154.88;5056503;28;20055;-65
2021/12/06 08:47:55;;;;;;;49.88;9.52;;;;;;;3.24;67.63;100156.25;5052368;28;20049;-65
2021/12/06 08:50:23;;;;;;;78.55;10.70;;;;;;;3.50;67.12;100151.59;5056315;28;20066;-65
2021/12/06 08:52:51;;;;;;;15.55;7.05;;;;;;;3.24;68.22;100159.00;5056919;28;20053;-65
2021/12/06 08:55:21;;;;;;;17.02;7.45;;;;;;;3.75;66.83;100155.44;5060206;28;20052;-65
2021/12/06 08:57:50;;;;;;;84.05;10.60;;;;;;;4.15;65.41;100159.22;5056674;28;20052;-65
2021/12/06 09:00:26;;;;;;;21.52;7.28;;;;;;;4.73;63.87;100156.81;5058852;28;20049;-65
2021/12/06 09:02:53;;;;;;;19.80;7.25;;;;;;;4.91;63.18;100160.03;5054602;28;20056;-65
2021/12/06 09:05:24;;;;;;;16.67;7.57;;;;;;;4.92;63.16;100161.69;5065546;28;20052;-66
2021/12/06 09:07:52;;;;;;;32.13;9.55;;;;;;;5.15;62.26;100161.00;5056296;28;20079;-66
2021/12/06 09:10:21;;;;;;;62.60;11.13;;;;;;;5.31;62.21;100160.88;5059509;28;20060;-66
2021/12/06 09:12:49;;;;;;;43.35;10.25;;;;;;;5.28;62.89;100157.59;5058942;28;20052;-66
2021/12/06 09:15:18;;;;;;;20.52;7.18;;;;;;;5.19;63.19;100164.03;5054919;28;20045;-65
2021/12/06 09:17:46;;;;;;;51.88;10.07;;;;;;;5.09;63.29;100164.91;5059252;28;20115;-66
2021/12/06 09:20:16;;;;;;;63.28;11.32;;;;;;;5.09;63.87;100175.94;5059328;28;20048;-66
2021/12/06 09:22:45;;;;;;;34.00;9.63;;;;;;;5.15;63.29;100180.31;5060062;28;20143;-66
2021/12/06 09:25:13;;;;;;;15.43;8.38;;;;;;;4.99;63.56;100173.25;5069631;28;20052;-66
2021/12/06 09:27:42;;;;;;;89.88;11.50;;;;;;;4.91;63.49;100180.16;5059994;28;20048;-66
2021/12/06 09:30:12;;;;;;;26.27;9.48;;;;;;;5.14;62.87;100173.13;5066344;28;20067;-66
2021/12/06 09:32:40;;;;;;;33.60;9.32;;;;;;;5.35;62.11;100175.78;5058713;28;20547;-66
2021/12/06 09:35:12;;;;;;;23.80;7.93;;;;;;;5.74;60.67;100158.34;5057650;28;20513;-66
2021/12/06 09:37:40;;;;;;;19.33;7.38;;;;;;;6.16;59.90;100176.22;5061005;28;20537;-66
2021/12/06 09:40:09;;;;;;;11.85;7.38;;;;;;;6.43;58.97;100170.13;5058282;28;20478;-66
2021/12/06 09:42:37;;;;;;;9.82;7.22;;;;;;;7.36;56.42;100170.53;5071221;28;20056;-65
2021/12/06 09:45:09;;;;;;;9.05;8.15;;;;;;;8.28;53.97;100157.06;5058493;28;20056;-64
2021/12/06 09:47:39;;;;;;;8.13;6.05;;;;;;;8.98;52.03;100152.31;5055049;28;20052;-67
2021/12/06 09:50:08;;;;;;;7.10;6.32;;;;;;;8.50;52.24;100140.56;5067736;28;20401;-65
2021/12/06 09:52:36;;;;;;;7.60;6.80;;;;;;;8.33;53.37;100148.63;5056824;28;20052;-67
2021/12/06 09:55:05;;;;;;;9.30;8.32;;;;;;;8.52;52.74;100137.44;5058253;28;20053;-64
2021/12/06 09:57:32;;;;;;;24.40;18.15;;;;;;;8.44;53.44;100132.63;5065080;28;20502;-64
2021/12/06 10:00:02;;;;;;;19.23;8.55;;;;;;;8.38;54.48;100129.13;5054041;28;20057;-65
2021/12/06 10:02:31;;;;;;;35.47;13.57;;;;;;;8.46;53.92;100133.97;5062905;28;20045;-65
2021/12/06 10:04:59;;;;;;;26.23;17.40;;;;;;;8.28;53.90;100135.69;5056681;28;20057;-65
2021/12/06 10:07:27;;;;;;;23.50;12.43;;;;;;;8.32;54.12;100141.44;5053889;28;20052;-65
2021/12/06 10:09:55;;;;;;;32.35;11.98;;;;;;;8.56;53.30;100129.34;5068216;28;20056;-65
2021/12/06 10:12:25;;;;;;;16.77;10.02;;;;;;;8.87;53.05;100122.00;5058499;28;20072;-67
2021/12/06 10:14:52;;;;;;;;;;;;;;;8.78;52.15;100129.44;5071377;28;20044;-65
2021/12/06 10:17:23;;;;;;;19.13;10.15;;;;;;;8.79;51.75;100136.59;5056917;28;20357;-65
2021/12/06 10:19:52;;;;;;;34.72;10.40;;;;;;;8.52;52.63;100132.75;5070251;28;20063;-65
2021/12/06 10:22:21;;;;;;;21.73;10.07;;;;;;;8.70;52.78;100136.53;5063938;28;20052;-65
2021/12/06 10:24:54;;;;;;;28.60;9.30;;;;;;;8.87;52.20;100129.50;5066092;28;20390;-65
2021/12/06 10:27:21;;;;;;;16.45;7.40;;;;;;;9.57;50.19;100125.34;5068466;28;20052;-65
2021/12/06 10:29:53;;;;;;;14.13;7.25;;;;;;;10.12;48.98;100125.06;5061680;28;20057;-66
2021/12/06 10:32:23;;;;;;;10.90;6.35;;;;;;;10.11;48.99;100128.13;5055710;28;20502;-66
2021/12/06 10:34:53;;;;;;;;;;;;;;;9.43;48.57;100135.72;5063827;28;20390;-66
2021/12/06 10:37:31;;;;;;;20.45;6.97;;;;;;;9.23;50.68;100137.03;5054148;28;19924;-66
2021/12/06 10:39:58;;;;;;;14.27;5.22;;;;;;;9.11;50.89;100134.78;5065814;28;20056;-66
2021/12/06 10:42:27;;;;;;;57.65;8.85;;;;;;;8.82;51.28;100138.78;5063315;28;20053;-66
2021/12/06 10:44:55;;;;;;;41.33;7.63;;;;;;;8.74;51.42;100132.00;5051920;28;20052;-66
2021/12/06 10:47:23;;;;;;;39.10;8.60;;;;;;;8.98;52.19;100130.09;5060505;28;20059;-66
2021/12/06 10:49:55;;;;;;;36.70;8.50;;;;;;;9.28;51.01;100126.63;5063884;28;20052;-66
2021/12/06 10:52:26;;;;;;;38.47;8.60;;;;;;;9.91;50.27;100129.50;5067287;28;20055;-66
2021/12/06 10:54:57;;;;;;;19.70;8.35;;;;;;;10.67;48.83;100117.41;5055776;28;20075;-66
2021/12/06 10:57:45;;;;;;;23.70;9.20;;;;;;;11.34;47.19;100114.22;5059114;28;20052;-67
2021/12/06 11:00:28;;;;;;;10.32;6.97;;;;;;;11.92;43.78;100112.00;5052581;28;20068;-66
2021/12/06 11:02:56;;;;;;;7.65;6.85;;;;;;;11.96;45.38;100106.59;5060835;28;20053;-66
2021/12/06 11:05:28;;;;;;;14.80;7.57;;;;;;;12.27;44.31;100109.13;5054976;28;20398;-67
2021/12/06 11:08:09;;;;;;;14.50;7.07;;;;;;;12.35;43.64;100097.09;5058706;28;20532;-66
2021/12/06 11:10:41;;;;;;;7.93;6.90;;;;;;;12.90;43.49;100097.28;5064635;28;20048;-66
2021/12/06 11:13:17;;;;;;;8.52;7.53;;;;;;;13.67;42.28;100089.41;5056585;28;20056;-66
2021/12/06 11:16:01;;;;;;;9.00;8.00;;;;;;;15.02;40.36;100081.09;5053352;28;20048;-66
2021/12/06 11:18:33;;;;;;;9.80;8.13;;;;;;;16.41;37.09;100074.09;5066419;28;20134;-66
2021/12/06 11:21:02;;;;;;;8.52;7.72;;;;;;;17.37;35.28;100071.88;5052754;28;20052;-66
2021/12/06 11:23:30;;;;;;;7.57;6.88;;;;;;;18.20;34.13;100061.00;5050816;28;20060;-66
2021/12/06 11:25:59;;;;;;;7.72;7.07;;;;;;;18.63;33.04;100058.09;5053755;28;20382;-66
2021/12/06 11:28:33;;;;;;;8.93;8.02;;;;;;;19.24;32.42;100056.16;5059625;28;20060;-65
2021/12/06 11:31:02;;;;;;;7.65;6.82;;;;;;;19.64;31.35;100051.78;5054935;28;20391;-65
2021/12/06 11:33:30;;;;;;;;;;;;;;;19.95;30.19;100052.53;5064927;28;20520;-65
2021/12/06 11:35:58;;;;;;;6.97;6.32;;;;;;;20.38;30.11;100058.59;5056339;28;19920;-65
2021/12/06 11:38:28;;;;;;;7.80;7.10;;;;;;;20.66;29.64;100056.00;5060677;28;20068;-65
2021/12/06 11:40:57;;;;;;;7.88;7.07;;;;;;;21.15;29.02;100048.22;5067021;28;20119;-65
2021/12/06 11:43:29;;;;;;;7.38;6.68;;;;;;;21.37;28.72;100043.44;5060855;28;20041;-66